sensor_id;sensor_type;location;lat;lon;timestamp;pressure;altitude;pressure_sealevel;temperature;humidity
39739;BME280;25422;48.286;8.484;2023-02-20T00:02:06;95169.47;;;4.08;100.00
39739;BME280;25422;48.286;8.484;2023-02-20T00:04:31;95166.47;;;4.14;100.00
39739;BME280;25422;48.286;8.484;2023-02-20T00:06:57;95162.22;;;4.13;100.00
39739;BME280;25422;48.286;8.484;2023-02-20T00:09:22;95159.41;;;4.16;100.00
39739;BME280;25422;48.286;8.484;2023-02-20T00:11:47;95170.59;;;4.16;100.00
39739;BME280;25422;48.286;8.484;2023-02-20T00:14:13;95166.47;;;4.14;100.00
39739;BME280;25422;48.286;8.484;2023-02-20T00:16:38;95159.94;;;4.21;100.00
39739;BME280;25422;48.286;8.484;2023-02-20T00:19:04;95154.13;;;4.17;100.00
39739;BME280;25422;48.286;8.484;2023-02-20T00:21:30;95162.00;;;4.16;100.00
39739;BME280;25422;48.286;8.484;2023-02-20T00:23:55;95158.59;;;4.15;100.00
39739;BME280;25422;48.286;8.484;2023-02-20T00:26:21;95158.59;;;4.15;100.00
39739;BME280;25422;48.286;8.484;2023-02-20T00:28:46;95151.66;;;4.16;100.00
39739;BME280;25422;48.286;8.484;2023-02-20T00:31:15;95156.72;;;4.17;100.00
39739;BME280;25422;48.286;8.484;2023-02-20T00:33:42;95158.59;;;4.15;100.00
39739;BME280;25422;48.286;8.484;2023-02-20T00:36:14;95153.31;;;4.17;100.00
39739;BME280;25422;48.286;8.484;2023-02-20T00:38:41;95148.84;;;4.19;100.00
39739;BME280;25422;48.286;8.484;2023-02-20T00:41:07;95153.53;;;4.14;100.00
39739;BME280;25422;48.286;8.484;2023-02-20T00:43:35;95154.56;;;4.11;100.00
39739;BME280;25422;48.286;8.484;2023-02-20T00:46:01;95155.78;;;4.05;100.00
39739;BME280;25422;48.286;8.484;2023-02-20T00:48:26;95148.25;;;4.02;100.00
39739;BME280;25422;48.286;8.484;2023-02-20T00:51:12;95151.97;;;3.98;100.00
39739;BME280;25422;48.286;8.484;2023-02-20T00:53:37;95158.28;;;3.94;100.00
39739;BME280;25422;48.286;8.484;2023-02-20T00:56:03;95156.97;;;3.88;100.00
39739;BME280;25422;48.286;8.484;2023-02-20T00:58:28;95156.84;;;3.90;100.00
39739;BME280;25422;48.286;8.484;2023-02-20T01:00:54;95155.63;;;3.83;100.00
39739;BME280;25422;48.286;8.484;2023-02-20T01:03:20;95155.09;;;3.78;100.00
39739;BME280;25422;48.286;8.484;2023-02-20T01:05:46;95158.63;;;3.77;100.00
39739;BME280;25422;48.286;8.484;2023-02-20T01:08:11;95160.69;;;3.71;100.00
39739;BME280;25422;48.286;8.484;2023-02-20T01:10:37;95149.50;;;3.71;100.00
39739;BME280;25422;48.286;8.484;2023-02-20T01:13:02;95152.09;;;3.58;100.00
39739;BME280;25422;48.286;8.484;2023-02-20T01:15:28;95148.25;;;3.51;100.00
39739;BME280;25422;48.286;8.484;2023-02-20T01:17:55;95153.44;;;3.51;100.00
39739;BME280;25422;48.286;8.484;2023-02-20T01:20:23;95159.03;;;3.45;100.00
39739;BME280;25422;48.286;8.484;2023-02-20T01:22:49;95164.69;;;3.37;100.00
39739;BME280;25422;48.286;8.484;2023-02-20T01:25:14;95171.66;;;3.36;100.00
39739;BME280;25422;48.286;8.484;2023-02-20T01:27:40;95170.91;;;3.34;100.00
39739;BME280;25422;48.286;8.484;2023-02-20T01:30:06;95170.09;;;3.34;100.00
39739;BME280;25422;48.286;8.484;2023-02-20T01:32:32;95172.03;;;3.30;100.00
39739;BME280;25422;48.286;8.484;2023-02-20T01:34:57;95167.88;;;3.28;100.00
39739;BME280;25422;48.286;8.484;2023-02-20T01:37:23;95169.44;;;3.30;100.00
39739;BME280;25422;48.286;8.484;2023-02-20T01:39:48;95165.41;;;3.26;100.00
39739;BME280;25422;48.286;8.484;2023-02-20T01:42:18;95165.72;;;3.22;100.00
39739;BME280;25422;48.286;8.484;2023-02-20T01:44:44;95158.44;;;3.14;100.00
39739;BME280;25422;48.286;8.484;2023-02-20T01:47:14;95159.78;;;3.07;100.00
39739;BME280;25422;48.286;8.484;2023-02-20T01:49:44;95160.81;;;3.04;100.00
39739;BME280;25422;48.286;8.484;2023-02-20T01:52:21;95161.31;;;2.96;100.00
39739;BME280;25422;48.286;8.484;2023-02-20T01:55:01;95154.19;;;3.00;100.00
39739;BME280;25422;48.286;8.484;2023-02-20T01:57:28;95151.44;;;2.89;100.00
39739;BME280;25422;48.286;8.484;2023-02-20T01:59:59;95154.72;;;2.78;100.00
39739;BME280;25422;48.286;8.484;2023-02-20T02:02:27;95152.63;;;2.70;100.00
39739;BME280;25422;48.286;8.484;2023-02-20T02:04:54;95154.78;;;2.63;100.00
39739;BME280;25422;48.286;8.484;2023-02-20T02:07:22;95157.03;;;2.55;100.00
39739;BME280;25422;48.286;8.484;2023-02-20T02:09:52;95162.56;;;2.49;100.00
39739;BME280;25422;48.286;8.484;2023-02-20T02:12:20;95153.16;;;2.48;100.00
39739;BME280;25422;48.286;8.484;2023-02-20T02:14:46;95157.88;;;2.41;100.00
39739;BME280;25422;48.286;8.484;2023-02-20T02:20:37;95158.44;;;2.32;100.00
39739;BME280;25422;48.286;8.484;2023-02-20T02:29:15;95132.41;;;1.93;100.00
39739;BME280;25422;48.286;8.484;2023-02-20T02:32:09;95131.47;;;1.80;100.00
39739;BME280;25422;48.286;8.484;2023-02-20T02:35:14;95126.16;;;1.68;100.00
39739;BME280;25422;48.286;8.484;2023-02-20T02:38:14;95117.56;;;1.54;100.00
39739;BME280;25422;48.286;8.484;2023-02-20T02:40:52;95114.44;;;1.48;100.00
39739;BME280;25422;48.286;8.484;2023-02-20T02:43:47;95119.41;;;1.37;100.00
39739;BME280;25422;48.286;8.484;2023-02-20T02:46:23;95119.47;;;1.35;100.00
39739;BME280;25422;48.286;8.484;2023-02-20T02:49:06;95120.69;;;1.44;100.00
39739;BME280;25422;48.286;8.484;2023-02-20T02:51:36;95122.63;;;1.41;100.00
39739;BME280;25422;48.286;8.484;2023-02-20T02:54:12;95114.59;;;1.31;100.00
39739;BME280;25422;48.286;8.484;2023-02-20T02:56:43;95110.63;;;1.25;100.00
39739;BME280;25422;48.286;8.484;2023-02-20T02:59:22;95105.66;;;1.22;100.00
39739;BME280;25422;48.286;8.484;2023-02-20T03:01:53;95103.63;;;1.13;100.00
39739;BME280;25422;48.286;8.484;2023-02-20T03:04:21;95106.84;;;1.16;100.00
39739;BME280;25422;48.286;8.484;2023-02-20T03:07:01;95113.28;;;1.09;100.00
39739;BME280;25422;48.286;8.484;2023-02-20T03:09:36;95116.47;;;0.98;100.00
39739;BME280;25422;48.286;8.484;2023-02-20T03:12:03;95112.75;;;0.88;100.00
39739;BME280;25422;48.286;8.484;2023-02-20T03:14:34;95118.00;;;0.87;100.00
39739;BME280;25422;48.286;8.484;2023-02-20T03:17:23;95114.69;;;0.84;100.00
39739;BME280;25422;48.286;8.484;2023-02-20T03:19:54;95113.53;;;0.74;100.00
39739;BME280;25422;48.286;8.484;2023-02-20T03:22:42;95107.16;;;0.65;100.00
39739;BME280;25422;48.286;8.484;2023-02-20T03:25:21;95113.84;;;0.54;100.00
39739;BME280;25422;48.286;8.484;2023-02-20T03:27:55;95107.47;;;0.45;100.00
39739;BME280;25422;48.286;8.484;2023-02-20T03:33:23;95103.22;;;0.44;100.00
39739;BME280;25422;48.286;8.484;2023-02-20T03:36:12;95093.66;;;0.46;100.00
39739;BME280;25422;48.286;8.484;2023-02-20T03:39:03;95090.53;;;0.41;100.00
39739;BME280;25422;48.286;8.484;2023-02-20T03:41:48;95093.84;;;0.27;100.00
39739;BME280;25422;48.286;8.484;2023-02-20T03:44:41;95092.63;;;0.18;100.00
39739;BME280;25422;48.286;8.484;2023-02-20T03:47:08;95099.84;;;0.11;100.00
39739;BME280;25422;48.286;8.484;2023-02-20T03:49:40;95078.91;;;0.17;100.00
39739;BME280;25422;48.286;8.484;2023-02-20T03:52:09;95086.63;;;0.17;100.00
39739;BME280;25422;48.286;8.484;2023-02-20T03:54:38;95092.03;;;0.13;100.00
39739;BME280;25422;48.286;8.484;2023-02-20T03:57:26;95097.75;;;0.18;100.00
39739;BME280;25422;48.286;8.484;2023-02-20T04:00:15;95095.41;;;0.29;100.00
39739;BME280;25422;48.286;8.484;2023-02-20T04:02:50;95082.38;;;0.32;100.00
39739;BME280;25422;48.286;8.484;2023-02-20T04:05:22;95090.13;;;0.16;100.00
39739;BME280;25422;48.286;8.484;2023-02-20T04:07:55;95102.16;;;0.16;100.00
39739;BME280;25422;48.286;8.484;2023-02-20T04:10:27;95096.59;;;0.08;100.00
39739;BME280;25422;48.286;8.484;2023-02-20T04:12:56;95085.88;;;-0.01;100.00
39739;BME280;25422;48.286;8.484;2023-02-20T04:15:22;95090.22;;;-0.01;100.00
39739;BME280;25422;48.286;8.484;2023-02-20T04:17:57;95091.78;;;0.02;100.00
39739;BME280;25422;48.286;8.484;2023-02-20T04:20:24;95088.38;;;0.17;100.00
39739;BME280;25422;48.286;8.484;2023-02-20T04:23:06;95084.53;;;0.24;100.00
39739;BME280;25422;48.286;8.484;2023-02-20T04:26:01;95090.28;;;0.13;100.00
39739;BME280;25422;48.286;8.484;2023-02-20T04:28:31;95091.78;;;0.02;100.00
39739;BME280;25422;48.286;8.484;2023-02-20T04:31:01;95095.59;;;-0.06;100.00
39739;BME280;25422;48.286;8.484;2023-02-20T04:33:27;95086.81;;;-0.18;100.00
39739;BME280;25422;48.286;8.484;2023-02-20T04:35:58;95092.19;;;-0.22;100.00
39739;BME280;25422;48.286;8.484;2023-02-20T04:38:24;95091.75;;;-0.30;100.00
39739;BME280;25422;48.286;8.484;2023-02-20T04:40:50;95083.13;;;-0.29;100.00
39739;BME280;25422;48.286;8.484;2023-02-20T04:43:17;95084.63;;;-0.25;100.00
39739;BME280;25422;48.286;8.484;2023-02-20T04:45:43;95093.81;;;-0.37;100.00
39739;BME280;25422;48.286;8.484;2023-02-20T04:48:10;95085.88;;;-0.32;100.00
39739;BME280;25422;48.286;8.484;2023-02-20T04:50:37;95081.56;;;-0.16;100.00
39739;BME280;25422;48.286;8.484;2023-02-20T04:53:04;95082.00;;;-0.08;100.00
39739;BME280;25422;48.286;8.484;2023-02-20T04:55:29;95087.72;;;-0.03;100.00
39739;BME280;25422;48.286;8.484;2023-02-20T04:57:59;95091.44;;;-0.08;100.00
39739;BME280;25422;48.286;8.484;2023-02-20T05:00:28;95086.38;;;-0.10;100.00
39739;BME280;25422;48.286;8.484;2023-02-20T05:02:54;95092.59;;;-0.14;100.00
39739;BME280;25422;48.286;8.484;2023-02-20T05:05:25;95077.50;;;-0.20;100.00
39739;BME280;25422;48.286;8.484;2023-02-20T05:07:56;95081.50;;;-0.14;100.00
39739;BME280;25422;48.286;8.484;2023-02-20T05:10:23;95076.09;;;-0.10;100.00
39739;BME280;25422;48.286;8.484;2023-02-20T05:12:49;95076.00;;;-0.08;100.00
39739;BME280;25422;48.286;8.484;2023-02-20T05:15:15;95075.34;;;-0.12;100.00
39739;BME280;25422;48.286;8.484;2023-02-20T05:17:40;95077.16;;;-0.14;100.00
39739;BME280;25422;48.286;8.484;2023-02-20T05:20:06;95075.44;;;-0.13;100.00
39739;BME280;25422;48.286;8.484;2023-02-20T05:22:32;95073.19;;;-0.04;100.00
39739;BME280;25422;48.286;8.484;2023-02-20T05:24:58;95075.28;;;-0.10;100.00
39739;BME280;25422;48.286;8.484;2023-02-20T05:27:24;95080.72;;;-0.17;100.00
39739;BME280;25422;48.286;8.484;2023-02-20T05:29:52;95073.25;;;-0.37;100.00
39739;BME280;25422;48.286;8.484;2023-02-20T05:32:20;95079.81;;;-0.47;100.00
39739;BME280;25422;48.286;8.484;2023-02-20T05:34:45;95072.47;;;-0.55;100.00
39739;BME280;25422;48.286;8.484;2023-02-20T05:37:13;95066.75;;;-0.60;100.00
39739;BME280;25422;48.286;8.484;2023-02-20T05:39:39;95072.56;;;-0.57;100.00
39739;BME280;25422;48.286;8.484;2023-02-20T05:42:05;95071.88;;;-0.60;100.00
39739;BME280;25422;48.286;8.484;2023-02-20T05:44:30;95061.19;;;-0.69;100.00
39739;BME280;25422;48.286;8.484;2023-02-20T05:46:56;95072.13;;;-0.65;100.00
39739;BME280;25422;48.286;8.484;2023-02-20T05:49:22;95067.97;;;-0.68;100.00
39739;BME280;25422;48.286;8.484;2023-02-20T05:51:48;95072.78;;;-0.61;100.00
39739;BME280;25422;48.286;8.484;2023-02-20T05:54:20;95069.41;;;-0.62;100.00
39739;BME280;25422;48.286;8.484;2023-02-20T05:56:46;95065.59;;;-0.55;100.00
39739;BME280;25422;48.286;8.484;2023-02-20T05:59:13;95076.03;;;-0.58;100.00
39739;BME280;25422;48.286;8.484;2023-02-20T06:01:40;95075.88;;;-0.55;100.00
39739;BME280;25422;48.286;8.484;2023-02-20T06:04:06;95073.72;;;-0.46;100.00
39739;BME280;25422;48.286;8.484;2023-02-20T06:06:36;95075.16;;;-0.25;100.00
39739;BME280;25422;48.286;8.484;2023-02-20T06:09:03;95071.69;;;-0.24;100.00
39739;BME280;25422;48.286;8.484;2023-02-20T06:11:28;95068.13;;;-0.21;100.00
39739;BME280;25422;48.286;8.484;2023-02-20T06:13:54;95056.53;;;-0.28;100.00
39739;BME280;25422;48.286;8.484;2023-02-20T06:16:25;95062.72;;;-0.48;100.00
39739;BME280;25422;48.286;8.484;2023-02-20T06:18:51;95054.72;;;-0.60;100.00
39739;BME280;25422;48.286;8.484;2023-02-20T06:21:17;95067.06;;;-0.66;100.00
39739;BME280;25422;48.286;8.484;2023-02-20T06:23:43;95062.84;;;-0.68;100.00
39739;BME280;25422;48.286;8.484;2023-02-20T06:26:12;95066.84;;;-0.62;100.00
39739;BME280;25422;48.286;8.484;2023-02-20T06:28:38;95069.31;;;-0.60;100.00
39739;BME280;25422;48.286;8.484;2023-02-20T06:31:05;95062.50;;;-0.61;100.00
39739;BME280;25422;48.286;8.484;2023-02-20T06:33:31;95071.16;;;-0.62;100.00
39739;BME280;25422;48.286;8.484;2023-02-20T06:35:56;95074.97;;;-0.54;100.00
39739;BME280;25422;48.286;8.484;2023-02-20T06:38:23;95066.34;;;-0.53;100.00
39739;BME280;25422;48.286;8.484;2023-02-20T06:40:48;95068.34;;;-0.58;100.00
39739;BME280;25422;48.286;8.484;2023-02-20T06:43:14;95082.75;;;-0.55;100.00
39739;BME280;25422;48.286;8.484;2023-02-20T06:45:39;95069.94;;;-0.39;100.00
39739;BME280;25422;48.286;8.484;2023-02-20T06:48:05;95069.53;;;-0.31;100.00
39739;BME280;25422;48.286;8.484;2023-02-20T06:50:30;95065.13;;;-0.29;100.00
39739;BME280;25422;48.286;8.484;2023-02-20T06:52:56;95067.63;;;-0.12;100.00
39739;BME280;25422;48.286;8.484;2023-02-20T06:55:21;95071.44;;;-0.03;100.00
39739;BME280;25422;48.286;8.484;2023-02-20T06:57:46;95077.59;;;0.10;100.00
39739;BME280;25422;48.286;8.484;2023-02-20T07:00:14;95073.75;;;0.33;100.00
39739;BME280;25422;48.286;8.484;2023-02-20T07:02:40;95074.72;;;0.47;100.00
39739;BME280;25422;48.286;8.484;2023-02-20T07:05:06;95077.59;;;0.57;100.00
39739;BME280;25422;48.286;8.484;2023-02-20T07:07:33;95085.69;;;0.81;100.00
39739;BME280;25422;48.286;8.484;2023-02-20T07:09:58;95074.50;;;0.96;100.00
39739;BME280;25422;48.286;8.484;2023-02-20T07:12:28;95077.09;;;1.11;100.00
39739;BME280;25422;48.286;8.484;2023-02-20T07:14:56;95075.91;;;1.16;100.00
39739;BME280;25422;48.286;8.484;2023-02-20T07:17:21;95077.28;;;1.08;100.00
39739;BME280;25422;48.286;8.484;2023-02-20T07:19:47;95077.66;;;1.16;100.00
39739;BME280;25422;48.286;8.484;2023-02-20T07:22:12;95081.91;;;1.17;100.00
39739;BME280;25422;48.286;8.484;2023-02-20T07:24:38;95079.31;;;1.17;100.00
39739;BME280;25422;48.286;8.484;2023-02-20T07:27:06;95082.28;;;1.40;100.00
39739;BME280;25422;48.286;8.484;2023-02-20T07:29:31;95086.81;;;1.65;100.00
39739;BME280;25422;48.286;8.484;2023-02-20T07:31:57;95090.94;;;1.82;100.00
39739;BME280;25422;48.286;8.484;2023-02-20T07:34:22;95093.72;;;2.21;100.00
39739;BME280;25422;48.286;8.484;2023-02-20T07:36:48;95096.56;;;2.58;100.00
39739;BME280;25422;48.286;8.484;2023-02-20T07:39:13;95105.59;;;3.31;100.00
39739;BME280;25422;48.286;8.484;2023-02-20T07:41:38;95098.63;;;3.96;100.00
39739;BME280;25422;48.286;8.484;2023-02-20T07:44:16;95089.25;;;4.56;100.00
39739;BME280;25422;48.286;8.484;2023-02-20T07:46:42;95081.00;;;5.22;100.00
39739;BME280;25422;48.286;8.484;2023-02-20T07:49:07;95086.25;;;5.67;100.00
39739;BME280;25422;48.286;8.484;2023-02-20T07:51:33;95086.16;;;6.03;100.00
39739;BME280;25422;48.286;8.484;2023-02-20T07:54:00;95087.59;;;6.62;100.00
39739;BME280;25422;48.286;8.484;2023-02-20T07:56:25;95089.34;;;7.48;100.00
39739;BME280;25422;48.286;8.484;2023-02-20T07:58:51;95091.81;;;8.11;100.00
39739;BME280;25422;48.286;8.484;2023-02-20T08:01:17;95090.78;;;8.23;100.00
39739;BME280;25422;48.286;8.484;2023-02-20T08:03:43;95077.31;;;8.78;100.00
39739;BME280;25422;48.286;8.484;2023-02-20T08:06:08;95075.19;;;10.08;100.00
39739;BME280;25422;48.286;8.484;2023-02-20T08:08:34;95077.72;;;11.09;91.55
39739;BME280;25422;48.286;8.484;2023-02-20T08:10:59;95075.88;;;11.64;85.03
39739;BME280;25422;48.286;8.484;2023-02-20T08:13:25;95072.50;;;11.98;72.86
39739;BME280;25422;48.286;8.484;2023-02-20T08:15:51;95064.34;;;11.57;70.78
39739;BME280;25422;48.286;8.484;2023-02-20T08:18:16;95074.28;;;12.32;66.92
39739;BME280;25422;48.286;8.484;2023-02-20T08:20:42;95068.19;;;11.00;69.72
39739;BME280;25422;48.286;8.484;2023-02-20T08:23:22;95072.72;;;10.34;78.14
39739;BME280;25422;48.286;8.484;2023-02-20T08:25:48;95070.25;;;11.14;74.27
39739;BME280;25422;48.286;8.484;2023-02-20T08:28:14;95069.28;;;11.60;68.92
39739;BME280;25422;48.286;8.484;2023-02-20T08:30:40;95075.03;;;11.90;68.64
39739;BME280;25422;48.286;8.484;2023-02-20T08:33:05;95071.88;;;12.47;62.98
39739;BME280;25422;48.286;8.484;2023-02-20T08:35:32;95079.63;;;12.65;60.86
39739;BME280;25422;48.286;8.484;2023-02-20T08:40:51;95061.19;;;13.16;59.37
39739;BME280;25422;48.286;8.484;2023-02-20T08:43:17;95057.06;;;12.97;60.54
39739;BME280;25422;48.286;8.484;2023-02-20T08:45:43;95060.00;;;13.76;57.39
39739;BME280;25422;48.286;8.484;2023-02-20T08:48:09;95060.66;;;13.78;55.27
39739;BME280;25422;48.286;8.484;2023-02-20T08:50:36;95051.41;;;13.99;54.60
39739;BME280;25422;48.286;8.484;2023-02-20T08:53:02;95051.63;;;14.29;53.31
39739;BME280;25422;48.286;8.484;2023-02-20T08:55:28;95051.00;;;14.19;55.35
39739;BME280;25422;48.286;8.484;2023-02-20T08:57:53;95049.56;;;14.08;54.06
39739;BME280;25422;48.286;8.484;2023-02-20T09:00:20;95049.19;;;13.46;56.28
39739;BME280;25422;48.286;8.484;2023-02-20T09:02:46;95040.19;;;14.13;54.55
39739;BME280;25422;48.286;8.484;2023-02-20T09:05:12;95045.47;;;13.97;50.97
39739;BME280;25422;48.286;8.484;2023-02-20T09:07:37;95041.94;;;13.73;53.98
39739;BME280;25422;48.286;8.484;2023-02-20T09:10:03;95042.59;;;13.67;53.01
39739;BME280;25422;48.286;8.484;2023-02-20T09:12:29;95044.41;;;13.66;53.62
39739;BME280;25422;48.286;8.484;2023-02-20T09:14:56;95038.31;;;13.82;53.68
39739;BME280;25422;48.286;8.484;2023-02-20T09:17:21;95044.59;;;14.53;50.65
39739;BME280;25422;48.286;8.484;2023-02-20T09:19:46;95034.16;;;14.99;49.18
39739;BME280;25422;48.286;8.484;2023-02-20T09:22:12;95040.63;;;14.57;49.47
39739;BME280;25422;48.286;8.484;2023-02-20T09:24:37;95033.78;;;13.43;51.11
39739;BME280;25422;48.286;8.484;2023-02-20T09:27:03;95040.97;;;13.08;52.66
39739;BME280;25422;48.286;8.484;2023-02-20T09:29:32;95044.16;;;11.75;55.96
39739;BME280;25422;48.286;8.484;2023-02-20T09:31:58;95043.63;;;10.65;61.33
39739;BME280;25422;48.286;8.484;2023-02-20T09:34:23;95045.41;;;10.19;64.07
39739;BME280;25422;48.286;8.484;2023-02-20T09:36:50;95037.09;;;9.95;67.42
39739;BME280;25422;48.286;8.484;2023-02-20T09:39:16;95034.03;;;10.28;68.19
39739;BME280;25422;48.286;8.484;2023-02-20T09:49:43;95023.09;;;9.49;76.98
39739;BME280;25422;48.286;8.484;2023-02-20T09:52:11;95032.09;;;9.27;78.08
39739;BME280;25422;48.286;8.484;2023-02-20T09:54:42;95022.22;;;9.31;77.43
39739;BME280;25422;48.286;8.484;2023-02-20T09:57:15;95025.88;;;9.85;75.96
39739;BME280;25422;48.286;8.484;2023-02-20T09:59:49;95026.22;;;10.00;75.26
39739;BME280;25422;48.286;8.484;2023-02-20T10:02:19;95033.25;;;9.62;78.13
39739;BME280;25422;48.286;8.484;2023-02-20T10:04:49;95031.31;;;10.02;74.48
39739;BME280;25422;48.286;8.484;2023-02-20T10:07:18;95037.63;;;9.04;79.30
39739;BME280;25422;48.286;8.484;2023-02-20T10:09:46;95028.28;;;8.92;83.45
39739;BME280;25422;48.286;8.484;2023-02-20T10:12:36;95033.06;;;8.48;86.50
39739;BME280;25422;48.286;8.484;2023-02-20T10:23:51;95026.63;;;8.91;84.60
39739;BME280;25422;48.286;8.484;2023-02-20T10:26:24;95023.19;;;9.20;84.73
39739;BME280;25422;48.286;8.484;2023-02-20T10:28:51;95027.94;;;9.34;83.18
39739;BME280;25422;48.286;8.484;2023-02-20T10:31:36;95026.81;;;9.47;84.94
39739;BME280;25422;48.286;8.484;2023-02-20T10:34:09;95027.81;;;9.45;80.16
39739;BME280;25422;48.286;8.484;2023-02-20T10:36:39;95032.41;;;9.99;78.34
39739;BME280;25422;48.286;8.484;2023-02-20T10:39:13;95021.28;;;10.71;72.15
39739;BME280;25422;48.286;8.484;2023-02-20T10:44:29;95026.06;;;10.02;74.53
39739;BME280;25422;48.286;8.484;2023-02-20T10:47:15;95018.13;;;10.67;70.45
39739;BME280;25422;48.286;8.484;2023-02-20T10:50:17;95018.75;;;10.33;69.86
39739;BME280;25422;48.286;8.484;2023-02-20T10:52:52;95023.72;;;10.08;71.22
39739;BME280;25422;48.286;8.484;2023-02-20T11:00:38;95012.19;;;10.01;71.68
39739;BME280;25422;48.286;8.484;2023-02-20T11:03:14;95004.34;;;10.01;72.29
39739;BME280;25422;48.286;8.484;2023-02-20T11:05:45;94999.59;;;9.87;71.59
39739;BME280;25422;48.286;8.484;2023-02-20T11:08:11;95000.19;;;10.08;72.77
39739;BME280;25422;48.286;8.484;2023-02-20T11:10:36;94997.78;;;9.97;71.78
39739;BME280;25422;48.286;8.484;2023-02-20T11:13:03;95002.31;;;9.95;72.73
39739;BME280;25422;48.286;8.484;2023-02-20T11:15:33;95005.00;;;10.03;72.08
39739;BME280;25422;48.286;8.484;2023-02-20T11:18:02;94985.78;;;10.50;71.37
39739;BME280;25422;48.286;8.484;2023-02-20T11:23:06;94982.31;;;10.86;65.65
39739;BME280;25422;48.286;8.484;2023-02-20T11:25:33;94973.63;;;10.67;65.22
39739;BME280;25422;48.286;8.484;2023-02-20T11:33:05;94972.88;;;11.80;64.52
39739;BME280;25422;48.286;8.484;2023-02-20T11:35:37;94965.84;;;12.23;61.82
39739;BME280;25422;48.286;8.484;2023-02-20T11:43:25;94955.44;;;14.18;53.98
39739;BME280;25422;48.286;8.484;2023-02-20T11:46:12;94946.53;;;13.23;53.25
39739;BME280;25422;48.286;8.484;2023-02-20T11:51:38;94941.00;;;12.77;54.84
39739;BME280;25422;48.286;8.484;2023-02-20T11:54:22;94935.88;;;12.51;56.14
39739;BME280;25422;48.286;8.484;2023-02-20T11:59:48;94938.44;;;14.29;51.36
39739;BME280;25422;48.286;8.484;2023-02-20T12:04:44;94928.16;;;15.12;46.92
39739;BME280;25422;48.286;8.484;2023-02-20T12:07:25;94920.81;;;15.22;46.24
39739;BME280;25422;48.286;8.484;2023-02-20T12:09:55;94922.84;;;15.80;43.81
39739;BME280;25422;48.286;8.484;2023-02-20T12:12:25;94914.53;;;16.13;43.26
39739;BME280;25422;48.286;8.484;2023-02-20T12:14:51;94920.44;;;15.70;42.53
39739;BME280;25422;48.286;8.484;2023-02-20T12:17:42;94915.78;;;16.17;41.67
39739;BME280;25422;48.286;8.484;2023-02-20T12:20:15;94914.56;;;16.19;42.47
39739;BME280;25422;48.286;8.484;2023-02-20T12:22:52;94911.97;;;15.30;43.34
39739;BME280;25422;48.286;8.484;2023-02-20T12:28:23;94901.84;;;14.19;45.38
39739;BME280;25422;48.286;8.484;2023-02-20T12:31:15;94900.88;;;14.12;46.51
39739;BME280;25422;48.286;8.484;2023-02-20T12:36:36;94878.22;;;14.34;45.16
39739;BME280;25422;48.286;8.484;2023-02-20T12:41:42;94864.69;;;14.60;43.55
39739;BME280;25422;48.286;8.484;2023-02-20T12:44:30;94856.03;;;14.75;43.71
39739;BME280;25422;48.286;8.484;2023-02-20T12:55:59;94843.59;;;16.75;39.53
39739;BME280;25422;48.286;8.484;2023-02-20T13:01:06;94832.50;;;16.36;38.84
39739;BME280;25422;48.286;8.484;2023-02-20T13:06:43;94835.09;;;16.79;37.22
39739;BME280;25422;48.286;8.484;2023-02-20T13:09:24;94836.09;;;16.28;38.41
39739;BME280;25422;48.286;8.484;2023-02-20T13:11:54;94837.75;;;15.93;39.12
39739;BME280;25422;48.286;8.484;2023-02-20T13:14:29;94832.81;;;15.08;40.30
39739;BME280;25422;48.286;8.484;2023-02-20T13:19:39;94815.91;;;13.80;42.70
39739;BME280;25422;48.286;8.484;2023-02-20T13:22:06;94804.63;;;13.94;43.02
39739;BME280;25422;48.286;8.484;2023-02-20T13:24:37;94815.97;;;13.24;45.37
39739;BME280;25422;48.286;8.484;2023-02-20T13:27:07;94820.66;;;13.05;45.72
39739;BME280;25422;48.286;8.484;2023-02-20T13:29:38;94822.50;;;12.88;46.18
39739;BME280;25422;48.286;8.484;2023-02-20T13:34:42;94821.09;;;12.11;47.73
39739;BME280;25422;48.286;8.484;2023-02-20T13:45:46;94807.22;;;11.60;47.06
39739;BME280;25422;48.286;8.484;2023-02-20T13:48:38;94795.50;;;11.29;45.98
39739;BME280;25422;48.286;8.484;2023-02-20T13:59:07;94776.38;;;11.37;45.98
39739;BME280;25422;48.286;8.484;2023-02-20T14:01:59;94788.97;;;11.42;47.63
39739;BME280;25422;48.286;8.484;2023-02-20T14:04:25;94786.53;;;11.48;46.93
39739;BME280;25422;48.286;8.484;2023-02-20T14:06:52;94775.13;;;11.66;46.87
39739;BME280;25422;48.286;8.484;2023-02-20T14:09:23;94780.00;;;11.61;46.86
39739;BME280;25422;48.286;8.484;2023-02-20T14:11:53;94791.50;;;11.60;46.97
39739;BME280;25422;48.286;8.484;2023-02-20T14:14:27;94775.09;;;11.58;47.38
39739;BME280;25422;48.286;8.484;2023-02-20T14:17:03;94771.16;;;11.54;47.62
39739;BME280;25422;48.286;8.484;2023-02-20T14:19:29;94776.88;;;11.41;47.37
39739;BME280;25422;48.286;8.484;2023-02-20T14:21:54;94764.28;;;11.69;46.95
39739;BME280;25422;48.286;8.484;2023-02-20T14:24:26;94767.91;;;11.68;46.83
39739;BME280;25422;48.286;8.484;2023-02-20T14:26:52;94766.44;;;11.66;46.65
39739;BME280;25422;48.286;8.484;2023-02-20T14:31:53;94751.47;;;11.41;45.97
39739;BME280;25422;48.286;8.484;2023-02-20T14:37:29;94751.44;;;11.25;46.62
39739;BME280;25422;48.286;8.484;2023-02-20T14:42:33;94738.53;;;11.32;46.10
39739;BME280;25422;48.286;8.484;2023-02-20T14:45:04;94742.91;;;11.14;46.97
39739;BME280;25422;48.286;8.484;2023-02-20T14:47:30;94738.78;;;11.12;47.68
39739;BME280;25422;48.286;8.484;2023-02-20T14:52:40;94743.53;;;11.00;48.59
39739;BME280;25422;48.286;8.484;2023-02-20T14:55:12;94730.56;;;10.99;48.78
39739;BME280;25422;48.286;8.484;2023-02-20T14:57:38;94729.09;;;10.96;47.87
39739;BME280;25422;48.286;8.484;2023-02-20T15:00:23;94746.56;;;10.87;49.58
39739;BME280;25422;48.286;8.484;2023-02-20T15:02:52;94730.84;;;10.87;48.72
39739;BME280;25422;48.286;8.484;2023-02-20T15:05:33;94733.44;;;10.79;50.09
39739;BME280;25422;48.286;8.484;2023-02-20T15:08:11;94735.88;;;10.72;49.15
39739;BME280;25422;48.286;8.484;2023-02-20T15:10:43;94716.91;;;10.70;49.22